createdAt,value
2019-03-13T00:01:46.643Z,3.57
2019-03-13T00:04:15.927Z,3.60
2019-03-13T00:06:45.005Z,4.00
2019-03-13T00:09:14.168Z,3.60
2019-03-13T00:11:43.111Z,3.40
2019-03-13T00:14:12.386Z,3.33
2019-03-13T00:16:41.680Z,3.27
2019-03-13T00:19:10.941Z,3.10
2019-03-13T00:21:40.081Z,3.20
2019-03-13T00:24:09.033Z,3.43
2019-03-13T00:26:38.221Z,3.27
2019-03-13T00:29:12.434Z,3.70
2019-03-13T00:31:41.521Z,3.47
2019-03-13T00:34:10.364Z,3.60
2019-03-13T00:36:39.223Z,3.47
2019-03-13T00:39:11.593Z,3.83
2019-03-13T00:41:40.436Z,3.83
2019-03-13T00:44:09.459Z,4.00
2019-03-13T00:46:38.453Z,3.57
2019-03-13T00:49:07.624Z,4.00
2019-03-13T00:51:37.236Z,4.00
2019-03-13T00:54:06.442Z,4.83
2019-03-13T00:56:35.474Z,4.10
2019-03-13T00:59:04.621Z,4.80
2019-03-13T01:01:49.106Z,5.00
2019-03-13T01:04:22.554Z,4.67
2019-03-13T01:06:59.228Z,5.00
2019-03-13T01:09:39.045Z,4.13
2019-03-13T01:12:08.870Z,4.57
2019-03-13T01:14:38.011Z,4.07
2019-03-13T01:17:08.030Z,4.27
2019-03-13T01:19:38.267Z,2.73
2019-03-13T01:22:07.276Z,3.37
2019-03-13T01:24:39.034Z,3.00
2019-03-13T01:27:08.498Z,3.00
2019-03-13T01:29:38.325Z,2.57
2019-03-13T01:32:25.885Z,2.53
2019-03-13T01:35:14.269Z,2.67
2019-03-13T01:37:43.287Z,2.37
2019-03-13T01:40:13.107Z,2.87
2019-03-13T01:42:42.965Z,2.70
2019-03-13T01:45:16.565Z,2.70
2019-03-13T01:47:46.075Z,2.80
2019-03-13T01:50:20.096Z,3.00
2019-03-13T01:52:49.041Z,2.73
2019-03-13T01:55:20.761Z,2.97
2019-03-13T01:57:49.857Z,3.00
2019-03-13T02:00:21.249Z,3.07
2019-03-13T02:02:50.674Z,2.83
2019-03-13T02:05:22.349Z,2.77
2019-03-13T02:07:51.253Z,3.00
2019-03-13T02:10:20.531Z,3.17
2019-03-13T02:12:49.783Z,3.27
2019-03-13T02:15:20.686Z,3.07
2019-03-13T02:17:49.897Z,3.13
2019-03-13T02:20:19.726Z,2.60
2019-03-13T02:22:48.719Z,3.00
2019-03-13T02:25:18.496Z,3.20
2019-03-13T02:27:49.293Z,2.63
2019-03-13T02:30:32.930Z,2.87
2019-03-13T02:33:02.494Z,3.33
2019-03-13T02:35:31.874Z,3.00
2019-03-13T02:38:01.116Z,2.87
2019-03-13T02:40:30.508Z,3.10
2019-03-13T02:43:00.591Z,3.17
2019-03-13T02:45:30.018Z,3.17
2019-03-13T02:48:00.577Z,3.43
2019-03-13T02:50:30.825Z,2.73
2019-03-13T02:53:00.024Z,3.03
2019-03-13T02:55:29.370Z,2.97
2019-03-13T02:57:59.018Z,2.90
2019-03-13T03:00:55.340Z,3.10
2019-03-13T03:03:37.272Z,2.87
2019-03-13T03:06:06.768Z,3.17
2019-03-13T03:08:37.154Z,2.73
2019-03-13T03:11:50.997Z,2.90
2019-03-13T03:14:20.758Z,2.77
2019-03-13T03:16:50.494Z,2.80
2019-03-13T03:19:19.910Z,1.83
2019-03-13T03:21:50.962Z,3.10
2019-03-13T03:24:21.391Z,3.43
2019-03-13T03:26:51.746Z,2.83
2019-03-13T03:29:21.419Z,3.07
2019-03-13T03:31:55.960Z,3.30
2019-03-13T03:34:25.023Z,3.23
2019-03-13T03:36:56.979Z,2.37
2019-03-13T03:39:26.440Z,3.20
2019-03-13T03:41:59.435Z,2.97
2019-03-13T03:44:28.567Z,3.00
2019-03-13T03:46:58.002Z,2.93
2019-03-13T03:49:28.091Z,2.63
2019-03-13T03:51:57.433Z,2.10
2019-03-13T03:54:26.800Z,1.87
2019-03-13T03:56:55.813Z,1.70
2019-03-13T03:59:25.219Z,1.30
2019-03-13T04:01:54.574Z,1.23
2019-03-13T04:04:23.745Z,1.30
2019-03-13T04:06:53.642Z,1.30
2019-03-13T04:09:22.995Z,1.20
2019-03-13T04:11:52.238Z,1.50
2019-03-13T04:14:22.155Z,1.13
2019-03-13T04:16:51.826Z,1.10
2019-03-13T04:19:26.439Z,1.00
2019-03-13T04:21:58.615Z,1.30
2019-03-13T04:24:27.615Z,1.13
2019-03-13T04:26:57.214Z,1.10
2019-03-13T04:29:26.414Z,1.27
2019-03-13T04:31:58.972Z,1.37
2019-03-13T04:34:29.016Z,1.30
2019-03-13T04:36:59.353Z,1.37
2019-03-13T04:39:28.540Z,1.13
2019-03-13T04:41:58.467Z,1.30
2019-03-13T04:44:27.985Z,1.13
2019-03-13T04:47:00.470Z,1.10
2019-03-13T04:49:33.853Z,1.10
2019-03-13T04:52:03.912Z,1.33
2019-03-13T04:54:34.991Z,1.30
2019-03-13T04:57:08.427Z,1.17
2019-03-13T04:59:43.322Z,1.23
2019-03-13T05:02:15.493Z,1.20
2019-03-13T05:04:45.715Z,1.07
2019-03-13T05:07:15.011Z,1.23
2019-03-13T05:09:44.404Z,1.33
2019-03-13T05:12:13.767Z,1.37
2019-03-13T05:14:43.197Z,1.53
2019-03-13T05:17:12.958Z,1.63
2019-03-13T05:19:42.735Z,1.80
2019-03-13T05:22:11.989Z,1.60
2019-03-13T05:24:42.197Z,1.60
2019-03-13T05:27:11.473Z,1.70
2019-03-13T05:29:40.514Z,1.80
2019-03-13T05:32:11.520Z,2.37
2019-03-13T05:34:40.486Z,2.20
2019-03-13T05:37:10.730Z,2.90
2019-03-13T05:39:40.570Z,2.30
2019-03-13T05:42:09.767Z,2.63
2019-03-13T05:44:38.724Z,2.30
2019-03-13T05:47:08.265Z,2.33
2019-03-13T05:49:41.194Z,2.50
2019-03-13T05:52:11.634Z,2.77
2019-03-13T05:54:40.977Z,3.17
2019-03-13T05:57:10.716Z,2.43
2019-03-13T05:59:40.174Z,2.80
2019-03-13T06:02:09.571Z,2.93
2019-03-13T06:04:38.635Z,2.63
2019-03-13T06:07:08.741Z,2.90
2019-03-13T06:09:38.258Z,3.47
2019-03-13T06:12:07.282Z,2.80
2019-03-13T06:14:37.974Z,3.50
2019-03-13T06:17:10.732Z,2.80
2019-03-13T06:19:42.871Z,3.00
2019-03-13T06:22:12.764Z,3.13
2019-03-13T06:24:49.338Z,2.70
2019-03-13T06:27:23.081Z,2.90
2019-03-13T06:30:09.835Z,3.13
2019-03-13T06:32:43.399Z,3.00
2019-03-13T06:35:23.713Z,3.20
2019-03-13T06:37:55.959Z,2.67
2019-03-13T06:40:29.999Z,3.33
2019-03-13T06:43:02.500Z,3.13
2019-03-13T06:45:33.481Z,3.70
2019-03-13T06:48:06.901Z,2.97
2019-03-13T06:50:46.458Z,2.93
2019-03-13T06:53:16.675Z,3.53
2019-03-13T06:56:12.261Z,2.87
2019-03-13T06:59:13.667Z,2.97
2019-03-13T07:02:08.312Z,2.73
2019-03-13T07:04:56.688Z,2.90
2019-03-13T07:07:55.077Z,3.13
2019-03-13T07:10:36.824Z,3.17
2019-03-13T07:13:24.453Z,2.97
2019-03-13T07:16:09.655Z,3.10
2019-03-13T07:18:48.070Z,3.43
2019-03-13T07:25:21.494Z,4.13
2019-03-13T07:28:12.626Z,3.27
2019-03-13T07:31:29.917Z,2.87
2019-03-13T07:34:31.839Z,3.33
2019-03-13T07:37:23.357Z,3.63
2019-03-13T07:40:10.120Z,3.33
2019-03-13T07:43:05.598Z,3.40
2019-03-13T07:45:42.691Z,3.40
2019-03-13T07:48:39.734Z,2.93
2019-03-13T07:51:56.660Z,2.90
2019-03-13T07:54:35.122Z,3.47
2019-03-13T07:57:21.949Z,3.17
2019-03-13T08:03:23.270Z,3.17
2019-03-13T08:06:23.305Z,3.00
2019-03-13T08:09:14.111Z,3.27
2019-03-13T08:12:02.437Z,2.70
2019-03-13T08:14:49.144Z,3.10
2019-03-13T08:17:35.118Z,2.90
2019-03-13T08:20:16.770Z,2.50
2019-03-13T08:23:04.841Z,2.53
2019-03-13T08:25:52.090Z,3.03
2019-03-13T08:28:29.349Z,3.07
2019-03-13T08:31:28.741Z,3.00
2019-03-13T08:34:15.259Z,2.93
2019-03-13T08:37:06.590Z,3.03
2019-03-13T08:40:07.330Z,3.57
2019-03-13T08:43:03.177Z,3.47
2019-03-13T08:46:02.455Z,3.37
2019-03-13T08:48:45.152Z,4.20
2019-03-13T08:51:40.052Z,4.07
2019-03-13T08:54:27.146Z,4.50
2019-03-13T08:57:09.713Z,4.67
2019-03-13T08:59:57.762Z,3.77
2019-03-13T09:02:49.118Z,4.00
2019-03-13T09:05:40.348Z,4.40
2019-03-13T09:08:32.250Z,4.47
2019-03-13T09:11:25.437Z,4.63
2019-03-13T09:14:11.900Z,4.77
2019-03-13T09:17:06.236Z,5.97
2019-03-13T09:19:44.239Z,5.10
2019-03-13T09:22:31.512Z,5.20
2019-03-13T09:25:12.410Z,5.00
2019-03-13T09:28:16.620Z,5.13
2019-03-13T09:31:11.069Z,5.23
2019-03-13T09:34:05.014Z,5.23
2019-03-13T09:36:56.363Z,5.33
2019-03-13T09:39:44.354Z,4.07
2019-03-13T09:42:43.806Z,4.27
2019-03-13T09:45:33.687Z,4.10
2019-03-13T09:48:16.079Z,4.80
2019-03-13T09:50:50.990Z,4.23
2019-03-13T09:53:45.509Z,5.17
2019-03-13T09:56:39.767Z,4.57
2019-03-13T09:59:42.186Z,4.33
2019-03-13T10:02:28.003Z,4.03
2019-03-13T10:05:20.039Z,4.57
2019-03-13T10:08:29.339Z,4.50
2019-03-13T10:11:12.873Z,4.57
2019-03-13T10:17:10.455Z,4.50
2019-03-13T10:19:43.455Z,4.83
2019-03-13T10:22:28.509Z,4.50
2019-03-13T10:25:19.698Z,4.47
2019-03-13T10:27:53.868Z,4.60
2019-03-13T10:30:38.051Z,4.73
2019-03-13T10:33:35.883Z,5.10
2019-03-13T10:36:15.805Z,4.33
2019-03-13T10:39:19.297Z,4.77
2019-03-13T10:42:05.001Z,4.50
2019-03-13T10:44:41.957Z,5.10
2019-03-13T10:47:32.541Z,4.10
2019-03-13T10:50:27.328Z,4.97
2019-03-13T10:53:17.042Z,4.63
2019-03-13T10:56:02.378Z,5.30
2019-03-13T10:59:01.393Z,5.00
2019-03-13T11:02:15.396Z,4.77
2019-03-13T11:05:21.032Z,5.00
2019-03-13T11:08:08.652Z,4.67
2019-03-13T11:11:00.372Z,4.13
2019-03-13T11:13:42.669Z,4.57
2019-03-13T11:16:44.692Z,4.73
2019-03-13T11:19:33.848Z,5.27
2019-03-13T11:22:26.757Z,5.07
2019-03-13T11:25:18.626Z,4.90
2019-03-13T11:28:08.135Z,5.63
2019-03-13T11:31:01.324Z,5.10
2019-03-13T11:33:39.064Z,4.67
2019-03-13T11:36:43.453Z,4.33
2019-03-13T11:39:34.717Z,4.87
2019-03-13T11:42:33.683Z,4.10
2019-03-13T11:45:31.931Z,3.67
2019-03-13T11:48:18.789Z,4.27
2019-03-13T11:51:21.369Z,4.27
2019-03-13T11:54:09.773Z,4.50
2019-03-13T11:56:58.559Z,4.33
2019-03-13T11:59:53.431Z,3.83
2019-03-13T12:02:46.362Z,3.83
2019-03-13T12:05:33.191Z,3.67
2019-03-13T12:08:20.702Z,4.17
2019-03-13T12:10:58.953Z,3.73
2019-03-13T12:14:05.990Z,3.30
2019-03-13T12:16:48.785Z,3.27
2019-03-13T12:19:55.074Z,3.97
2019-03-13T12:22:45.571Z,3.93
2019-03-13T12:25:30.512Z,2.70
2019-03-13T12:28:37.203Z,3.70
2019-03-13T12:31:25.990Z,3.37
2019-03-13T12:34:07.579Z,4.90
2019-03-13T12:36:48.291Z,3.53
2019-03-13T12:39:37.796Z,3.37
2019-03-13T12:42:27.754Z,3.60
2019-03-13T12:45:09.905Z,3.87
2019-03-13T12:47:58.052Z,3.23
2019-03-13T12:50:34.300Z,3.10
2019-03-13T12:53:26.297Z,2.77
2019-03-13T12:56:05.094Z,2.80
2019-03-13T12:59:05.841Z,3.10
2019-03-13T13:02:03.926Z,3.60
2019-03-13T13:04:47.027Z,3.33
2019-03-13T13:07:24.789Z,3.37
2019-03-13T13:10:13.604Z,3.10
2019-03-13T13:13:11.068Z,3.20
2019-03-13T13:15:57.734Z,3.57
2019-03-13T13:18:51.841Z,3.20
2019-03-13T13:21:56.346Z,3.37
2019-03-13T13:24:28.154Z,3.40
2019-03-13T13:26:59.718Z,2.77
2019-03-13T13:29:29.104Z,2.73
2019-03-13T13:31:59.215Z,14.97
2019-03-13T13:34:30.973Z,3.93
2019-03-13T13:37:04.301Z,3.87
2019-03-13T13:39:34.189Z,4.07
2019-03-13T13:42:05.088Z,3.57
2019-03-13T13:44:34.737Z,3.53
2019-03-13T13:47:06.788Z,4.60
2019-03-13T13:49:59.637Z,3.73
2019-03-13T13:52:22.915Z,4.43
2019-03-13T13:54:52.634Z,3.47
2019-03-13T13:57:21.814Z,4.07
2019-03-13T13:59:52.471Z,3.10
2019-03-13T14:02:23.133Z,3.53
2019-03-13T14:04:53.018Z,4.17
2019-03-13T14:07:29.868Z,3.40
2019-03-13T14:10:01.221Z,4.10
2019-03-13T14:12:30.157Z,3.50
2019-03-13T14:15:01.054Z,4.03
2019-03-13T14:17:33.983Z,3.87
2019-03-13T14:20:03.130Z,3.40
2019-03-13T14:22:33.339Z,3.60
2019-03-13T14:25:02.422Z,3.70
2019-03-13T14:27:31.839Z,3.60
2019-03-13T14:30:03.068Z,3.97
2019-03-13T14:32:32.787Z,3.23
2019-03-13T14:35:01.836Z,3.57
2019-03-13T14:37:33.347Z,3.20
2019-03-13T14:40:03.478Z,3.43
2019-03-13T14:42:36.782Z,2.73
2019-03-13T14:45:09.756Z,4.40
2019-03-13T14:47:58.559Z,3.93
2019-03-13T14:50:36.504Z,4.67
2019-03-13T14:53:10.405Z,5.00
2019-03-13T14:55:39.650Z,4.30
2019-03-13T14:58:08.654Z,4.40
2019-03-13T15:00:37.998Z,3.57
2019-03-13T15:03:08.741Z,4.10
2019-03-13T15:05:38.252Z,4.30
2019-03-13T15:08:25.462Z,3.43
2019-03-13T15:11:04.698Z,4.47
2019-03-13T15:13:34.001Z,3.43
2019-03-13T15:16:02.936Z,3.37
2019-03-13T15:18:33.712Z,3.10
2019-03-13T15:21:21.293Z,3.60
2019-03-13T15:23:51.988Z,4.07
2019-03-13T15:26:21.385Z,3.87
2019-03-13T15:28:50.447Z,3.50
2019-03-13T15:31:23.146Z,2.97
2019-03-13T15:33:52.157Z,4.03
2019-03-13T15:36:21.385Z,2.57
2019-03-13T15:38:52.284Z,3.27
2019-03-13T15:41:23.032Z,3.10
2019-03-13T15:43:52.729Z,2.63
2019-03-13T15:46:22.065Z,2.97
2019-03-13T15:48:52.149Z,2.70
2019-03-13T15:51:27.069Z,2.93
2019-03-13T15:53:57.537Z,2.80
2019-03-13T15:56:29.705Z,3.13
2019-03-13T15:58:59.137Z,2.80
2019-03-13T16:01:31.945Z,2.90
2019-03-13T16:04:05.497Z,2.90
2019-03-13T16:06:37.458Z,3.67
2019-03-13T16:09:09.086Z,3.40
2019-03-13T16:11:39.601Z,3.00
2019-03-13T16:14:08.694Z,2.17
2019-03-13T16:16:38.035Z,2.23
2019-03-13T16:19:07.046Z,2.67
2019-03-13T16:21:55.255Z,3.40
2019-03-13T16:24:25.377Z,2.60
2019-03-13T16:26:55.484Z,2.57
2019-03-13T16:29:26.309Z,3.50
2019-03-13T16:31:57.120Z,2.20
2019-03-13T16:34:32.585Z,2.70
2019-03-13T16:37:01.680Z,2.67
2019-03-13T16:39:31.102Z,2.70
2019-03-13T16:42:02.731Z,5.43
2019-03-13T16:44:35.358Z,2.77
2019-03-13T16:47:04.874Z,3.20
2019-03-13T16:49:39.284Z,3.07
2019-03-13T16:52:09.282Z,3.10
2019-03-13T16:54:49.587Z,3.00
2019-03-13T16:57:23.921Z,2.60
2019-03-13T17:00:00.785Z,2.60
2019-03-13T17:02:31.089Z,3.03
2019-03-13T17:05:06.143Z,2.70
2019-03-13T17:07:35.509Z,3.13
2019-03-13T17:10:13.574Z,2.60
2019-03-13T17:12:43.765Z,2.90
2019-03-13T17:15:15.429Z,2.93
2019-03-13T17:17:57.419Z,2.87
2019-03-13T17:20:45.741Z,3.00
2019-03-13T17:23:24.145Z,2.83
2019-03-13T17:26:01.419Z,2.33
2019-03-13T17:28:31.176Z,2.67
2019-03-13T17:31:06.485Z,3.07
2019-03-13T17:33:35.630Z,2.03
2019-03-13T17:36:04.975Z,3.03
2019-03-13T17:38:36.992Z,4.07
2019-03-13T17:41:08.097Z,2.90
2019-03-13T17:43:39.624Z,3.37
2019-03-13T17:46:15.072Z,3.20
2019-03-13T17:48:45.981Z,2.97
2019-03-13T17:54:06.934Z,3.07
2019-03-13T17:56:39.289Z,2.63
2019-03-13T17:59:09.892Z,2.60
2019-03-13T18:01:47.610Z,3.30
2019-03-13T18:04:16.785Z,3.40
2019-03-13T18:06:50.810Z,2.77
2019-03-13T18:09:22.881Z,3.00
2019-03-13T18:11:55.244Z,3.30
2019-03-13T18:14:24.139Z,3.47
2019-03-13T18:17:25.163Z,3.97
2019-03-13T18:20:00.342Z,3.87
2019-03-13T18:22:31.937Z,4.53
2019-03-13T18:25:04.495Z,4.30
2019-03-13T18:27:34.849Z,4.83
2019-03-13T18:30:06.212Z,5.90
2019-03-13T18:32:42.019Z,4.60
2019-03-13T18:35:21.624Z,5.63
2019-03-13T18:37:53.015Z,5.40
2019-03-13T18:40:25.740Z,6.17
2019-03-13T18:42:59.437Z,4.97
2019-03-13T18:45:31.199Z,4.33
2019-03-13T18:48:05.414Z,5.60
2019-03-13T18:50:38.963Z,5.20
2019-03-13T18:53:08.603Z,6.40
2019-03-13T18:55:43.328Z,6.77
2019-03-13T18:58:17.182Z,6.37
2019-03-13T19:01:04.705Z,5.50
2019-03-13T19:03:54.041Z,5.17
2019-03-13T19:07:00.327Z,5.97
2019-03-13T19:09:31.525Z,8.07
2019-03-13T19:15:19.775Z,6.80
2019-03-13T19:20:37.570Z,6.30
2019-03-13T19:23:06.614Z,6.33
2019-03-13T19:26:05.335Z,5.57
2019-03-13T19:28:39.569Z,5.20
2019-03-13T19:31:20.955Z,5.07
2019-03-13T19:33:52.872Z,6.03
2019-03-13T19:36:24.496Z,6.20
2019-03-13T19:38:57.705Z,5.30
2019-03-13T19:41:48.581Z,8.50
2019-03-13T19:44:33.689Z,5.60
2019-03-13T19:47:11.590Z,4.97
2019-03-13T19:49:43.835Z,5.37
2019-03-13T19:52:14.835Z,5.73
2019-03-13T19:54:45.599Z,5.10
2019-03-13T19:57:20.998Z,4.70
2019-03-13T20:00:02.331Z,4.70
2019-03-13T20:02:37.460Z,4.70
2019-03-13T20:05:08.266Z,5.00
2019-03-13T20:07:38.358Z,5.60
2019-03-13T20:10:22.086Z,5.97
2019-03-13T20:13:19.926Z,7.60
2019-03-13T20:15:49.715Z,7.30
2019-03-13T20:18:24.597Z,7.63
2019-03-13T20:20:55.622Z,7.27
2019-03-13T20:26:21.985Z,7.20
2019-03-13T20:28:57.022Z,5.80
2019-03-13T20:31:49.941Z,6.60
2019-03-13T20:34:24.149Z,6.43
2019-03-13T20:36:59.685Z,7.40
2019-03-13T20:39:39.797Z,6.97
2019-03-13T20:42:10.095Z,5.47
2019-03-13T20:44:43.876Z,6.40
2019-03-13T20:47:50.219Z,6.20
2019-03-13T20:50:36.448Z,6.57
2019-03-13T20:52:59.989Z,5.63
2019-03-13T20:55:40.182Z,5.40
2019-03-13T20:58:14.870Z,5.30
2019-03-13T21:00:49.256Z,6.40
2019-03-13T21:03:20.286Z,5.37
2019-03-13T21:05:50.781Z,4.83
2019-03-13T21:08:30.036Z,5.00
2019-03-13T21:11:20.771Z,3.70
2019-03-13T21:14:04.981Z,5.20
2019-03-13T21:16:52.027Z,6.03
2019-03-13T21:19:39.523Z,5.00
2019-03-13T21:22:34.759Z,3.97
2019-03-13T21:25:12.469Z,4.17
2019-03-13T21:27:42.230Z,3.50
2019-03-13T21:30:19.653Z,3.40
2019-03-13T21:32:50.447Z,3.80
2019-03-13T21:35:19.599Z,4.10
2019-03-13T21:37:48.716Z,3.67
2019-03-13T21:40:18.620Z,4.17
2019-03-13T21:42:48.438Z,3.70
2019-03-13T21:45:22.683Z,4.33
2019-03-13T21:47:52.711Z,4.10
2019-03-13T21:50:27.567Z,4.20
2019-03-13T21:52:57.692Z,4.07
2019-03-13T21:55:28.214Z,4.17
2019-03-13T21:58:00.256Z,4.40
2019-03-13T22:01:41.534Z,4.20
2019-03-13T22:04:59.835Z,4.23
2019-03-13T22:08:02.109Z,4.20
2019-03-13T22:10:48.399Z,4.40
2019-03-13T22:13:23.540Z,4.50
2019-03-13T22:15:58.799Z,4.60
2019-03-13T22:18:31.675Z,4.03
2019-03-13T22:21:05.981Z,4.17
2019-03-13T22:23:38.924Z,4.00
2019-03-13T22:26:11.679Z,7.27
2019-03-13T22:32:32.260Z,4.10
2019-03-13T22:35:18.345Z,4.07
2019-03-13T22:38:00.889Z,4.10
2019-03-13T22:40:39.768Z,3.87
2019-03-13T22:43:24.986Z,2.83
2019-03-13T22:46:23.193Z,3.30
2019-03-13T22:49:04.435Z,3.60
2019-03-13T22:51:48.150Z,3.47
2019-03-13T22:54:29.293Z,3.57
2019-03-13T22:59:59.918Z,2.97
2019-03-13T23:02:57.978Z,3.53
2019-03-13T23:06:00.250Z,3.27
2019-03-13T23:08:39.023Z,3.20
2019-03-13T23:11:48.222Z,3.43
2019-03-13T23:14:20.443Z,3.80
2019-03-13T23:17:03.549Z,3.27
2019-03-13T23:21:04.942Z,7.53
2019-03-13T23:23:29.843Z,5.07
2019-03-13T23:29:38.134Z,3.03
2019-03-13T23:35:24.310Z,3.10
2019-03-13T23:38:03.713Z,3.40
2019-03-13T23:41:19.907Z,2.80
2019-03-13T23:44:05.990Z,2.50
2019-03-13T23:47:07.754Z,2.60
2019-03-13T23:50:10.766Z,2.80
2019-03-13T23:52:49.119Z,2.90
2019-03-13T23:55:34.971Z,2.80
2019-03-13T23:58:17.966Z,2.57
